Archival Weather

Republic

Farmingdale, New York (KFRG)

Report from: Friday, February 2, 2024 9:53 PM EST
Current time: Monday, June 17, 2024 3:07 AM EDT

Current weather – Weather history – Daily summaries
Weather forecast

Temperature3.3°C (37.9°F)
Wind chill0.4°C (32.7°F)
Dew point-1.7°C (28.9°F)
Winds 6 kts (3.1 m/s, 6.9 mph) North-Northwest (340°)
Visibility10 mi. (16.1 km)
Clouds Few clouds 5,500 ft. (1,676 m)
Altimeter29.97 in.Hg (1015 mB)
Relative humidity70 %
Density altitude-1,396 ft. (-425 m)
Sea-level pressure101.5 kPa (1015 mB, 29.97 in.Hg)
Remarks Fully automated report
Automated weather observing station without precipitation discriminator
Pressure rising more slowly
Flight conditions Visual Meteorological Conditions
Raw dataKFRG 030253Z AUTO 34006KT 10SM FEW055 03/M02 A2997 RMK AO1 SLP150 T00331017 51013
An error has occurred. This application may no longer respond until reloaded. Reload 🗙